Time;durP1;ratioP1;P1;durP2;ratioP2;P2;SDS_P1;SDS_P2;PMS_P1;PMS_P2;Temp;Humidity;BMP_temperature;BMP_pressure;BME280_temperature;BME280_humidity;BME280_pressure;Samples;Min_cycle;Max_cycle;Signal;HPM_P1;HPM_P2
2021/08/26 00:00:34;;;;;;;22.45;5.20;;;;;;;;;;6284757;22;20162;-61
2021/08/26 00:08:11;;;;;;;20.95;5.30;;;;;;;;;;6284498;22;20408;-61
2021/08/26 00:10:38;;;;;;;17.88;4.97;;;;;;;;;;6284616;22;20143;-61
2021/08/26 00:13:06;;;;;;;22.17;4.82;;;;;;;;;;6284458;22;20554;-61
2021/08/26 00:15:33;;;;;;;15.60;4.55;;;;;;;;;;6284881;22;20153;-61
2021/08/26 00:17:59;;;;;;;17.00;4.60;;;;;;;;;;6284270;22;20160;-61
2021/08/26 00:20:26;;;;;;;19.17;5.50;;;;;;;;;;6284863;22;20147;-61
2021/08/26 00:22:52;;;;;;;25.92;6.70;;;;;;;;;;6284401;22;20226;-61
2021/08/26 00:25:18;;;;;;;19.63;5.35;;;;;;;;;;6284479;22;20499;-61
2021/08/26 00:27:44;;;;;;;15.63;4.75;;;;;;;;;;6284338;22;20230;-61
2021/08/26 00:30:10;;;;;;;26.58;5.35;;;;;;;;;;6278432;22;20143;-62
2021/08/26 00:32:36;;;;;;;17.30;4.78;;;;;;;;;;6277581;22;20140;-61
2021/08/26 00:35:02;;;;;;;21.92;6.07;;;;;;;;;;6277641;22;20154;-61
2021/08/26 00:37:28;;;;;;;17.40;5.70;;;;;;;;;;6277438;22;20195;-62
2021/08/26 00:39:54;;;;;;;18.55;4.53;;;;;;;;;;6277601;22;20143;-61
2021/08/26 00:42:20;;;;;;;14.35;4.57;;;;;;;;;;6277579;22;20140;-61
2021/08/26 00:44:45;;;;;;;17.30;4.97;;;;;;;;;;6277945;22;20496;-61
2021/08/26 00:47:11;;;;;;;14.00;4.30;;;;;;;;;;6277539;22;20144;-61
2021/08/26 00:49:37;;;;;;;20.55;4.50;;;;;;;;;;6278023;22;20151;-61
2021/08/26 00:52:04;;;;;;;19.92;4.85;;;;;;;;;;6277666;22;20140;-61
2021/08/26 00:54:30;;;;;;;14.88;4.50;;;;;;;;;;6277992;22;20625;-61
2021/08/26 00:56:56;;;;;;;15.70;3.83;;;;;;;;;;6278385;22;20144;-61
2021/08/26 00:59:22;;;;;;;17.30;4.35;;;;;;;;;;6277952;22;20144;-61
2021/08/26 01:01:52;;;;;;;16.13;4.00;;;;;;;;;;6278041;22;20444;-61
2021/08/26 01:04:23;;;;;;;16.55;4.13;;;;;;;;;;6277930;22;20473;-61
2021/08/26 01:07:04;;;;;;;12.38;3.70;;;;;;;;;;6277945;22;20213;-61
2021/08/26 01:09:40;;;;;;;11.65;3.13;;;;;;;;;;6277818;22;20139;-61
2021/08/26 01:12:06;;;;;;;14.25;3.50;;;;;;;;;;6277932;22;20134;-61
2021/08/26 01:14:32;;;;;;;12.88;3.45;;;;;;;;;;6277815;22;20139;-61
2021/08/26 01:16:58;;;;;;;14.65;3.75;;;;;;;;;;6277705;22;20170;-61
2021/08/26 01:19:24;;;;;;;11.43;3.38;;;;;;;;;;6277599;22;20154;-61
2021/08/26 01:21:50;;;;;;;9.15;3.05;;;;;;;;;;6277798;22;20440;-62
2021/08/26 01:24:17;;;;;;;12.27;2.70;;;;;;;;;;6278111;22;20142;-61
2021/08/26 01:26:45;;;;;;;9.82;2.50;;;;;;;;;;6277820;22;20222;-61
2021/08/26 01:29:11;;;;;;;12.60;2.70;;;;;;;;;;6277921;22;20174;-61
2021/08/26 01:31:39;;;;;;;11.18;3.33;;;;;;;;;;6277697;22;20140;-61
2021/08/26 01:34:06;;;;;;;9.20;2.72;;;;;;;;;;6277870;22;20150;-62
2021/08/26 01:36:32;;;;;;;6.43;2.20;;;;;;;;;;6277609;22;20166;-61
2021/08/26 01:39:02;;;;;;;5.85;2.22;;;;;;;;;;6277431;22;20177;-61
2021/08/26 01:41:47;;;;;;;6.30;1.90;;;;;;;;;;6277090;22;20150;-61
2021/08/26 01:44:30;;;;;;;7.85;1.98;;;;;;;;;;6277863;22;20154;-61
2021/08/26 01:47:07;;;;;;;9.07;1.90;;;;;;;;;;6277579;22;20123;-61
2021/08/26 01:49:33;;;;;;;4.55;1.58;;;;;;;;;;6277442;22;20502;-61
2021/08/26 01:51:59;;;;;;;6.13;2.10;;;;;;;;;;6277422;22;20155;-61
2021/08/26 01:54:25;;;;;;;5.43;1.30;;;;;;;;;;6277316;22;20139;-62
2021/08/26 01:56:51;;;;;;;6.75;1.77;;;;;;;;;;6277333;22;20147;-61
2021/08/26 01:59:16;;;;;;;5.97;1.33;;;;;;;;;;6277250;22;20230;-61
2021/08/26 02:01:42;;;;;;;4.20;1.23;;;;;;;;;;6277436;22;20167;-61
2021/08/26 02:04:08;;;;;;;2.35;0.80;;;;;;;;;;6277325;22;20452;-62
2021/08/26 02:06:34;;;;;;;3.03;0.82;;;;;;;;;;6277623;22;20143;-62
2021/08/26 02:09:00;;;;;;;2.85;0.70;;;;;;;;;;6277502;22;20143;-61
2021/08/26 02:11:26;;;;;;;1.33;0.70;;;;;;;;;;6277378;22;20147;-61
2021/08/26 02:13:52;;;;;;;4.18;0.80;;;;;;;;;;6277316;22;20556;-61
2021/08/26 02:16:18;;;;;;;0.88;0.50;;;;;;;;;;6277403;22;20482;-61
2021/08/26 02:18:45;;;;;;;2.00;0.63;;;;;;;;;;6276710;22;20611;-61
2021/08/26 02:21:11;;;;;;;2.40;0.50;;;;;;;;;;6277344;22;20167;-61
2021/08/26 02:23:37;;;;;;;3.75;0.85;;;;;;;;;;6276830;22;20544;-61
2021/08/26 02:26:03;;;;;;;1.80;0.55;;;;;;;;;;6276821;22;20188;-61
2021/08/26 02:28:29;;;;;;;1.05;0.50;;;;;;;;;;6276750;22;20142;-61
2021/08/26 02:30:55;;;;;;;1.67;0.50;;;;;;;;;;6276821;22;20147;-61
2021/08/26 02:33:20;;;;;;;4.10;0.65;;;;;;;;;;6276676;22;20143;-61
2021/08/26 02:42:48;;;;;;;1.70;0.55;;;;;;;;;;6167725;22;20514;-60
2021/08/26 02:52:09;;;;;;;0.52;0.30;;;;;;;;;;6226066;22;20201;31
2021/08/26 02:59:21;;;;;;;1.38;0.40;;;;;;;;;;6343377;22;20199;31
2021/08/26 03:03:34;;;;;;;1.25;0.60;;;;;;;;;;6321639;22;20517;31
2021/08/26 03:19:23;;;;;;;1.65;0.55;;;;;;;;;;6197229;22;20570;-60
2021/08/26 03:26:03;;;;;;;1.05;0.28;;;;;;;;;;6195817;22;20827;-59
2021/08/26 03:44:19;;;;;;;2.85;0.43;;;;;;;;;;6259384;22;20564;31
2021/08/26 03:53:30;;;;;;;1.48;0.30;;;;;;;;;;6135420;23;20208;31
2021/08/26 04:00:21;;;;;;;0.32;0.20;;;;;;;;;;6288185;22;20204;31
2021/08/26 04:04:31;;;;;;;1.02;0.40;;;;;;;;;;6321418;22;20518;31
2021/08/26 04:21:16;;;;;;;2.35;0.50;;;;;;;;;;5865303;22;21391;31
2021/08/26 04:26:16;;;;;;;3.15;0.50;;;;;;;;;;6205389;22;20528;31
2021/08/26 04:42:20;;;;;;;2.47;0.30;;;;;;;;;;6319697;22;20215;31
2021/08/26 05:00:37;;;;;;;1.67;0.28;;;;;;;;;;6259117;22;20564;31
2021/08/26 05:14:28;;;;;;;1.13;0.28;;;;;;;;;;6260976;22;23710;31
2021/08/26 05:21:10;;;;;;;3.60;0.40;;;;;;;;;;6260269;22;21846;-60
2021/08/26 05:23:36;;;;;;;0.47;0.30;;;;;;;;;;6233932;22;20217;31
2021/08/26 05:30:35;;;;;;;3.45;0.60;;;;;;;;;;6140438;23;20192;31
2021/08/26 05:35:38;;;;;;;2.70;0.65;;;;;;;;;;6291632;22;20526;31
2021/08/26 05:44:40;;;;;;;0.98;0.40;;;;;;;;;;6203371;22;20479;31
2021/08/26 05:48:55;;;;;;;2.38;0.30;;;;;;;;;;6229363;22;20531;31
2021/08/26 06:05:01;;;;;;;1.25;0.22;;;;;;;;;;6317342;22;20857;31
2021/08/26 06:12:09;;;;;;;1.95;0.63;;;;;;;;;;6318910;22;20202;31
2021/08/26 06:37:21;;;;;;;0.30;0.30;;;;;;;;;;6177061;22;20558;31
2021/08/26 06:53:43;;;;;;;1.40;0.40;;;;;;;;;;6319051;22;20978;-66
2021/08/26 07:00:21;;;;;;;2.13;0.50;;;;;;;;;;6136077;23;20441;31
2021/08/26 07:32:40;;;;;;;4.95;0.68;;;;;;;;;;6291605;22;23301;31
2021/08/26 07:56:19;;;;;;;0.20;0.20;;;;;;;;;;6256997;22;20207;31
2021/08/26 08:03:32;;;;;;;1.98;0.38;;;;;;;;;;6210593;22;20196;-66
2021/08/26 08:08:07;;;;;;;0.50;0.20;;;;;;;;;;6290432;22;23317;31
2021/08/26 08:14:54;;;;;;;1.00;0.20;;;;;;;;;;6290428;22;23636;31
2021/08/26 08:26:36;;;;;;;2.35;0.57;;;;;;;;;;6134795;22;1157940;-67
2021/08/26 08:36:21;;;;;;;1.08;0.28;;;;;;;;;;6175891;23;20727;-65
2021/08/26 08:46:11;;;;;;;1.60;0.20;;;;;;;;;;6181880;23;20492;-67
2021/08/26 08:48:40;;;;;;;1.45;0.20;;;;;;;;;;6193594;23;20141;-67
2021/08/26 08:58:43;;;;;;;1.17;0.30;;;;;;;;;;6319217;22;20291;-65
2021/08/26 09:10:12;;;;;;;0.65;0.20;;;;;;;;;;6290427;22;20543;31
2021/08/26 09:17:15;;;;;;;0.85;0.20;;;;;;;;;;6289906;22;20539;31
2021/08/26 09:23:52;;;;;;;0.20;0.15;;;;;;;;;;6168229;22;20525;31
2021/08/26 09:30:35;;;;;;;1.10;0.20;;;;;;;;;;6167591;22;20534;-67
2021/08/26 09:33:02;;;;;;;0.17;0.15;;;;;;;;;;6157615;23;20195;31
2021/08/26 09:41:32;;;;;;;0.32;0.20;;;;;;;;;;6206799;22;20198;31
2021/08/26 09:47:43;;;;;;;1.15;0.22;;;;;;;;;;5632728;22;20569;-61
2021/08/26 09:50:09;;;;;;;0.73;0.30;;;;;;;;;;5553699;22;20184;-61
2021/08/26 10:02:14;;;;;;;0.80;0.38;;;;;;;;;;5332368;22;20217;-62
2021/08/26 10:04:41;;;;;;;3.00;0.32;;;;;;;;;;5026982;28;20165;-63
2021/08/26 10:07:07;;;;;;;0.43;0.40;;;;;;;;;;5046814;23;20220;-62
2021/08/26 10:09:33;;;;;;;0.50;0.30;;;;;;;;;;5046368;28;20169;-62
2021/08/26 10:11:59;;;;;;;0.43;0.30;;;;;;;;;;5046325;28;20164;-63
2021/08/26 10:14:26;;;;;;;1.17;0.40;;;;;;;;;;5046965;22;20244;-62
2021/08/26 10:16:53;;;;;;;0.50;0.40;;;;;;;;;;5047412;23;20719;-62
2021/08/26 10:19:19;;;;;;;1.75;0.30;;;;;;;;;;5046057;28;20196;-62
2021/08/26 10:21:46;;;;;;;0.52;0.30;;;;;;;;;;5046089;28;20169;-63
2021/08/26 10:24:13;;;;;;;0.60;0.50;;;;;;;;;;5046068;28;20229;-62
2021/08/26 10:26:43;;;;;;;1.90;0.28;;;;;;;;;;5046031;28;20169;-63
2021/08/26 10:31:36;;;;;;;1.30;0.57;;;;;;;;;;5074086;22;20224;-62
2021/08/26 10:34:22;;;;;;;1.98;0.30;;;;;;;;;;5034418;23;20169;-62
2021/08/26 10:37:07;;;;;;;1.70;0.30;;;;;;;;;;5025700;28;20181;-63
2021/08/26 10:39:36;;;;;;;0.52;0.30;;;;;;;;;;5032946;22;20679;-63
2021/08/26 10:42:22;;;;;;;0.68;0.30;;;;;;;;;;5042054;23;20410;-63
2021/08/26 10:45:00;;;;;;;0.90;0.50;;;;;;;;;;5046678;23;20216;-62
2021/08/26 10:47:45;;;;;;;0.40;0.30;;;;;;;;;;5006232;23;987031;-62
2021/08/26 10:50:16;;;;;;;2.58;0.40;;;;;;;;;;5094596;28;20581;-63
2021/08/26 10:52:55;;;;;;;1.13;0.20;;;;;;;;;;5026062;28;20220;-63
2021/08/26 10:55:32;;;;;;;3.10;0.43;;;;;;;;;;5025723;28;20292;-63
2021/08/26 10:58:16;;;;;;;2.72;0.68;;;;;;;;;;5025809;28;20169;-63
2021/08/26 11:00:45;;;;;;;0.80;0.32;;;;;;;;;;5026002;28;20169;-63
2021/08/26 11:03:31;;;;;;;1.45;0.40;;;;;;;;;;5025770;28;20177;-63
2021/08/26 11:05:58;;;;;;;0.80;0.32;;;;;;;;;;5025722;28;20617;-63
2021/08/26 11:08:27;;;;;;;1.85;0.40;;;;;;;;;;5014300;28;20299;-63
2021/08/26 11:10:53;;;;;;;1.65;0.65;;;;;;;;;;5012429;28;20170;-63
2021/08/26 11:13:35;;;;;;;0.85;0.30;;;;;;;;;;5012540;28;20205;-63
2021/08/26 11:16:19;;;;;;;2.70;0.43;;;;;;;;;;5012446;28;20190;-63
2021/08/26 11:18:45;;;;;;;0.57;0.32;;;;;;;;;;5012484;28;20176;-63
2021/08/26 11:21:11;;;;;;;2.05;0.40;;;;;;;;;;5012278;28;20174;-63
2021/08/26 11:23:45;;;;;;;1.35;0.30;;;;;;;;;;5012233;28;20178;-63
2021/08/26 11:26:29;;;;;;;1.45;0.70;;;;;;;;;;5012395;28;20177;-63
2021/08/26 11:28:55;;;;;;;2.50;0.30;;;;;;;;;;5012310;28;20173;-63
2021/08/26 11:31:21;;;;;;;1.35;0.32;;;;;;;;;;5012273;28;20170;-63
2021/08/26 11:33:47;;;;;;;3.28;0.40;;;;;;;;;;5012287;28;20165;-63
2021/08/26 11:36:14;;;;;;;1.00;0.35;;;;;;;;;;5012036;28;20201;-64
2021/08/26 11:38:47;;;;;;;2.13;0.30;;;;;;;;;;5012301;28;20176;-63
2021/08/26 11:41:13;;;;;;;1.73;0.50;;;;;;;;;;5012459;28;20150;-63
2021/08/26 11:43:41;;;;;;;0.50;0.28;;;;;;;;;;5012449;28;20165;-63
2021/08/26 11:46:11;;;;;;;1.80;0.40;;;;;;;;;;5011985;28;20268;-63
2021/08/26 11:48:46;;;;;;;0.60;0.40;;;;;;;;;;5012033;28;20215;-61
2021/08/26 11:51:19;;;;;;;1.33;0.50;;;;;;;;;;5011943;28;20179;-62
2021/08/26 11:53:45;;;;;;;3.35;0.50;;;;;;;;;;5012244;28;20151;-62
2021/08/26 11:56:11;;;;;;;0.82;0.47;;;;;;;;;;5011863;28;20193;-62
2021/08/26 11:58:37;;;;;;;2.15;0.50;;;;;;;;;;5011972;28;20165;-62
2021/08/26 12:01:03;;;;;;;1.10;0.50;;;;;;;;;;5012171;28;20170;-62
2021/08/26 12:03:29;;;;;;;1.05;0.38;;;;;;;;;;5012054;28;20162;-60
2021/08/26 12:05:55;;;;;;;1.75;0.50;;;;;;;;;;5011812;28;20610;-60
2021/08/26 12:08:21;;;;;;;1.90;0.60;;;;;;;;;;5012149;28;20231;-60
2021/08/26 12:10:48;;;;;;;1.95;0.57;;;;;;;;;;5012336;28;20170;-60
2021/08/26 12:13:15;;;;;;;7.88;0.80;;;;;;;;;;5012137;28;20668;-61
2021/08/26 12:15:42;;;;;;;2.90;0.43;;;;;;;;;;5012138;28;20284;-61
2021/08/26 12:18:15;;;;;;;1.17;0.50;;;;;;;;;;5011881;28;20244;-60
2021/08/26 12:20:43;;;;;;;0.80;0.30;;;;;;;;;;5011366;28;20166;-61
2021/08/26 12:23:09;;;;;;;2.53;0.80;;;;;;;;;;5012046;28;20209;-62
2021/08/26 12:25:37;;;;;;;2.08;0.85;;;;;;;;;;5011789;28;20177;-61
2021/08/26 12:28:04;;;;;;;1.08;0.43;;;;;;;;;;5011885;28;20180;-61
2021/08/26 12:30:38;;;;;;;1.55;0.60;;;;;;;;;;5011655;28;20174;-61
2021/08/26 12:33:07;;;;;;;3.90;0.55;;;;;;;;;;5011661;28;20158;-61
2021/08/26 12:35:33;;;;;;;3.15;0.60;;;;;;;;;;5015235;23;20563;31
2021/08/26 12:38:01;;;;;;;1.58;0.65;;;;;;;;;;5072500;28;20337;-61
2021/08/26 12:40:29;;;;;;;2.08;0.45;;;;;;;;;;5074082;28;20168;-61
2021/08/26 12:43:03;;;;;;;2.17;0.57;;;;;;;;;;5059297;22;20205;-61
2021/08/26 12:45:29;;;;;;;1.65;0.70;;;;;;;;;;5030900;28;20171;-61
2021/08/26 12:47:55;;;;;;;2.00;0.60;;;;;;;;;;5031251;28;20552;-61
2021/08/26 12:50:32;;;;;;;1.17;0.40;;;;;;;;;;5031152;28;20252;-61
2021/08/26 12:52:58;;;;;;;1.42;0.80;;;;;;;;;;5032520;23;20205;-61
2021/08/26 12:55:24;;;;;;;2.65;0.60;;;;;;;;;;5011197;28;20292;-61
2021/08/26 12:58:09;;;;;;;1.30;0.70;;;;;;;;;;5011311;28;20251;-61
2021/08/26 13:00:36;;;;;;;0.90;0.50;;;;;;;;;;5010906;28;20162;-61
2021/08/26 13:03:03;;;;;;;1.33;0.50;;;;;;;;;;5018135;23;20673;-61
2021/08/26 13:05:31;;;;;;;1.35;0.50;;;;;;;;;;5010876;28;20166;-61
2021/08/26 13:07:58;;;;;;;3.92;0.70;;;;;;;;;;5011169;28;20188;-61
2021/08/26 13:10:24;;;;;;;1.85;0.57;;;;;;;;;;5011009;28;20170;-61
2021/08/26 13:13:07;;;;;;;1.23;0.68;;;;;;;;;;5010732;28;20170;-61
2021/08/26 13:15:33;;;;;;;0.95;0.52;;;;;;;;;;5025464;23;20218;-61
2021/08/26 13:17:59;;;;;;;1.85;0.88;;;;;;;;;;5010940;28;20166;-61
2021/08/26 13:20:25;;;;;;;1.38;0.50;;;;;;;;;;5010873;28;20276;-61
2021/08/26 13:22:50;;;;;;;2.25;0.50;;;;;;;;;;5010564;28;20252;-61
2021/08/26 13:25:16;;;;;;;2.10;0.77;;;;;;;;;;5010539;28;20164;-61
2021/08/26 13:27:42;;;;;;;1.33;0.55;;;;;;;;;;5010429;28;20479;-61
2021/08/26 13:30:10;;;;;;;1.10;0.80;;;;;;;;;;5010342;28;20170;-61
2021/08/26 13:32:36;;;;;;;2.05;0.60;;;;;;;;;;5010688;28;20197;-61
2021/08/26 13:35:08;;;;;;;2.95;0.80;;;;;;;;;;5010141;28;20189;-61
2021/08/26 13:37:34;;;;;;;3.00;0.80;;;;;;;;;;5010537;28;20158;-61
2021/08/26 13:40:00;;;;;;;0.85;0.63;;;;;;;;;;5010352;28;20177;-61
2021/08/26 13:42:26;;;;;;;1.05;0.63;;;;;;;;;;5010159;28;20166;-61
2021/08/26 13:44:52;;;;;;;1.48;0.75;;;;;;;;;;5010066;28;20166;-61
2021/08/26 13:47:18;;;;;;;1.33;0.77;;;;;;;;;;5010270;28;20515;-60
2021/08/26 13:49:43;;;;;;;2.30;0.80;;;;;;;;;;5010108;28;20166;-62
2021/08/26 13:52:09;;;;;;;1.58;0.75;;;;;;;;;;5010243;28;20588;-63
2021/08/26 13:54:35;;;;;;;2.85;0.95;;;;;;;;;;5009973;28;20198;-62
2021/08/26 13:57:01;;;;;;;2.58;0.80;;;;;;;;;;5010082;28;20190;-63
2021/08/26 13:59:27;;;;;;;3.50;1.58;;;;;;;;;;5009948;28;20219;-62
2021/08/26 14:01:54;;;;;;;2.90;0.80;;;;;;;;;;5009804;28;20239;-62
2021/08/26 14:04:20;;;;;;;3.58;0.70;;;;;;;;;;5009935;28;20170;-63
2021/08/26 14:06:46;;;;;;;2.40;0.47;;;;;;;;;;5009749;28;20175;-63
2021/08/26 14:09:12;;;;;;;3.53;1.02;;;;;;;;;;5010166;28;20171;-64
2021/08/26 14:11:38;;;;;;;4.20;0.70;;;;;;;;;;5009708;28;20707;-65
2021/08/26 14:14:04;;;;;;;2.47;0.80;;;;;;;;;;5009755;28;20170;-64
2021/08/26 14:16:30;;;;;;;2.70;0.70;;;;;;;;;;5009630;28;20190;-64
2021/08/26 14:18:56;;;;;;;3.55;1.45;;;;;;;;;;5009705;28;20170;-64
2021/08/26 14:21:22;;;;;;;3.67;0.75;;;;;;;;;;5009840;28;20172;-64
2021/08/26 14:23:48;;;;;;;2.90;0.98;;;;;;;;;;5009912;28;20257;-64
2021/08/26 14:26:14;;;;;;;4.68;0.80;;;;;;;;;;5009532;28;20270;-64
2021/08/26 14:28:41;;;;;;;3.38;0.80;;;;;;;;;;5009857;28;20174;-64
2021/08/26 14:31:07;;;;;;;2.75;0.82;;;;;;;;;;5009843;28;20492;-65
2021/08/26 14:33:33;;;;;;;1.65;0.68;;;;;;;;;;5009513;28;20218;-65
2021/08/26 14:36:00;;;;;;;2.42;0.98;;;;;;;;;;5008473;28;20292;-65
2021/08/26 14:38:26;;;;;;;1.23;0.60;;;;;;;;;;5009651;28;20170;-65
2021/08/26 14:40:52;;;;;;;3.08;0.70;;;;;;;;;;5009393;28;20602;-65
2021/08/26 14:43:18;;;;;;;2.17;0.73;;;;;;;;;;5011787;28;20273;-66
2021/08/26 14:45:44;;;;;;;1.30;0.70;;;;;;;;;;5012862;28;20167;-67
2021/08/26 14:48:10;;;;;;;3.92;0.70;;;;;;;;;;5012700;28;20178;-67
2021/08/26 14:50:37;;;;;;;2.75;1.00;;;;;;;;;;5013116;28;20182;-67
2021/08/26 14:53:03;;;;;;;3.60;1.13;;;;;;;;;;5012937;28;20265;-67
2021/08/26 14:55:30;;;;;;;2.35;0.80;;;;;;;;;;5012707;28;20201;-67
2021/08/26 14:57:56;;;;;;;3.03;1.00;;;;;;;;;;5012678;28;20569;-68
2021/08/26 15:00:21;;;;;;;1.90;0.95;;;;;;;;;;5012722;28;20466;-67
2021/08/26 15:02:47;;;;;;;1.75;0.82;;;;;;;;;;5012600;28;20250;-68
2021/08/26 15:05:13;;;;;;;2.13;0.80;;;;;;;;;;5012711;28;20201;-68
2021/08/26 15:07:39;;;;;;;1.80;0.98;;;;;;;;;;5012858;28;20162;-67
2021/08/26 15:10:05;;;;;;;1.38;0.68;;;;;;;;;;5012815;28;20202;-67
2021/08/26 15:12:32;;;;;;;0.82;0.60;;;;;;;;;;5012584;28;20177;-67
2021/08/26 15:14:58;;;;;;;0.90;0.60;;;;;;;;;;5012547;28;20665;-67
2021/08/26 15:17:24;;;;;;;4.20;0.70;;;;;;;;;;5012379;28;20276;-66
2021/08/26 15:19:51;;;;;;;3.33;1.23;;;;;;;;;;5012855;28;20244;-66
2021/08/26 15:22:17;;;;;;;1.02;0.68;;;;;;;;;;5011601;28;20659;-67
2021/08/26 15:24:43;;;;;;;2.28;0.60;;;;;;;;;;5013145;28;20165;-66
2021/08/26 15:27:09;;;;;;;1.27;0.60;;;;;;;;;;5012734;28;20170;-67
2021/08/26 15:29:35;;;;;;;1.05;0.60;;;;;;;;;;5012571;28;20166;-66
2021/08/26 15:32:04;;;;;;;2.25;0.73;;;;;;;;;;5012309;28;20162;-66
2021/08/26 15:34:30;;;;;;;1.10;0.70;;;;;;;;;;5012393;28;20170;-61
2021/08/26 15:36:56;;;;;;;0.75;0.60;;;;;;;;;;5012531;28;20198;-61
2021/08/26 15:39:22;;;;;;;2.22;0.57;;;;;;;;;;5012406;28;20613;-61
2021/08/26 15:41:48;;;;;;;1.67;0.70;;;;;;;;;;5012424;28;20178;-61
2021/08/26 15:44:15;;;;;;;1.95;0.60;;;;;;;;;;5012452;28;20177;-61
2021/08/26 15:46:47;;;;;;;1.63;0.60;;;;;;;;;;5012285;28;20201;-60
2021/08/26 15:49:15;;;;;;;2.08;0.70;;;;;;;;;;5012431;28;20223;-60
2021/08/26 15:51:41;;;;;;;1.45;0.70;;;;;;;;;;5012172;28;20514;-60
2021/08/26 15:54:14;;;;;;;0.65;0.60;;;;;;;;;;5012182;28;20169;-60
2021/08/26 15:56:51;;;;;;;2.03;0.60;;;;;;;;;;5011930;28;20626;-60
2021/08/26 15:59:31;;;;;;;0.77;0.50;;;;;;;;;;5012246;28;20158;-61
2021/08/26 16:02:02;;;;;;;2.00;0.70;;;;;;;;;;5012283;28;20172;-60
2021/08/26 16:04:29;;;;;;;0.80;0.60;;;;;;;;;;5012134;28;20155;-60
2021/08/26 16:06:55;;;;;;;1.63;0.70;;;;;;;;;;5011992;28;20181;-60
2021/08/26 16:09:21;;;;;;;1.60;0.80;;;;;;;;;;5011750;28;20512;-60
2021/08/26 16:11:47;;;;;;;2.17;0.65;;;;;;;;;;5011938;28;20173;-60
2021/08/26 16:14:13;;;;;;;3.15;0.55;;;;;;;;;;5011645;28;20198;-60
2021/08/26 16:16:39;;;;;;;1.88;0.75;;;;;;;;;;5011978;28;20579;-60
2021/08/26 16:19:05;;;;;;;1.38;0.90;;;;;;;;;;5011452;28;20170;-60
2021/08/26 16:21:31;;;;;;;1.75;0.60;;;;;;;;;;5011847;28;20184;-60
2021/08/26 16:23:57;;;;;;;3.97;1.20;;;;;;;;;;5011429;28;20170;-60
2021/08/26 16:26:23;;;;;;;1.02;0.73;;;;;;;;;;5011552;28;20223;-60
2021/08/26 16:28:49;;;;;;;2.58;0.90;;;;;;;;;;5011653;28;20162;-60
2021/08/26 16:31:15;;;;;;;2.83;1.00;;;;;;;;;;5010787;28;20552;-60
2021/08/26 16:33:40;;;;;;;2.55;0.93;;;;;;;;;;5011855;28;20170;-60
2021/08/26 16:36:07;;;;;;;3.78;0.93;;;;;;;;;;5011245;28;20189;-61
2021/08/26 16:38:33;;;;;;;2.47;1.05;;;;;;;;;;5011473;28;20163;-62
2021/08/26 16:40:59;;;;;;;2.50;1.10;;;;;;;;;;5011280;28;20197;-65
2021/08/26 16:43:25;;;;;;;2.67;0.88;;;;;;;;;;5011006;28;20193;-60
2021/08/26 16:45:51;;;;;;;1.42;0.90;;;;;;;;;;5011089;28;20700;-61
2021/08/26 16:48:17;;;;;;;1.63;0.90;;;;;;;;;;5011012;28;20171;-61
2021/08/26 16:50:44;;;;;;;2.85;1.58;;;;;;;;;;5010993;28;20249;-61
2021/08/26 16:53:10;;;;;;;1.83;1.00;;;;;;;;;;5011101;28;20178;-60
2021/08/26 16:55:36;;;;;;;1.88;1.00;;;;;;;;;;5010807;28;20194;-61
2021/08/26 16:58:02;;;;;;;1.33;0.80;;;;;;;;;;5010799;28;20182;-61
2021/08/26 17:00:28;;;;;;;1.75;0.80;;;;;;;;;;5011014;28;20166;-61
2021/08/26 17:02:54;;;;;;;2.40;0.90;;;;;;;;;;5010661;28;20174;-61
2021/08/26 17:05:20;;;;;;;2.72;0.80;;;;;;;;;;5010184;28;20540;-61
2021/08/26 17:07:47;;;;;;;3.83;1.00;;;;;;;;;;5010987;28;20166;-60
2021/08/26 17:10:13;;;;;;;4.43;0.90;;;;;;;;;;5010656;28;20159;-60
2021/08/26 17:12:39;;;;;;;2.33;0.90;;;;;;;;;;5009601;28;20180;-62
2021/08/26 17:15:10;;;;;;;3.17;1.00;;;;;;;;;;5010354;28;20158;-60
2021/08/26 17:17:36;;;;;;;2.22;1.08;;;;;;;;;;5010806;28;20171;-60
2021/08/26 17:20:03;;;;;;;3.05;0.70;;;;;;;;;;5010561;28;20181;-60
2021/08/26 17:22:29;;;;;;;2.08;0.98;;;;;;;;;;5009456;28;20502;-60
2021/08/26 17:24:55;;;;;;;2.45;0.90;;;;;;;;;;5010295;28;20175;-60
2021/08/26 17:27:21;;;;;;;3.85;0.82;;;;;;;;;;5010655;28;20182;-60
2021/08/26 17:29:47;;;;;;;3.95;1.08;;;;;;;;;;5010549;28;20455;-60
2021/08/26 17:32:13;;;;;;;2.22;0.80;;;;;;;;;;5010624;28;20591;-60
2021/08/26 17:34:40;;;;;;;2.90;0.70;;;;;;;;;;5010509;28;20585;-60
2021/08/26 17:37:07;;;;;;;1.50;0.90;;;;;;;;;;5010230;28;20558;-60
2021/08/26 17:39:33;;;;;;;3.50;0.80;;;;;;;;;;5010471;28;20545;-60
2021/08/26 17:41:59;;;;;;;3.28;0.75;;;;;;;;;;5010230;28;20158;-60
2021/08/26 17:44:25;;;;;;;1.65;0.57;;;;;;;;;;5010161;28;20176;-60
2021/08/26 17:46:51;;;;;;;1.70;0.70;;;;;;;;;;5010172;28;20174;-60
2021/08/26 17:49:17;;;;;;;1.20;0.50;;;;;;;;;;5010084;28;20182;-60
2021/08/26 17:51:43;;;;;;;0.60;0.50;;;;;;;;;;5010334;28;20189;-59
2021/08/26 17:54:09;;;;;;;0.93;0.40;;;;;;;;;;5010304;28;20223;-60
2021/08/26 17:56:35;;;;;;;1.08;0.50;;;;;;;;;;5010006;28;20198;-60
2021/08/26 17:59:01;;;;;;;1.23;0.50;;;;;;;;;;5009908;28;20667;-59
2021/08/26 18:01:27;;;;;;;0.63;0.50;;;;;;;;;;5009945;28;20166;-59
2021/08/26 18:03:53;;;;;;;1.02;0.52;;;;;;;;;;5009897;28;20239;-59
2021/08/26 18:06:18;;;;;;;0.68;0.60;;;;;;;;;;5010006;28;20641;-60
2021/08/26 18:08:44;;;;;;;1.40;0.50;;;;;;;;;;5009730;28;20166;-61
2021/08/26 18:11:10;;;;;;;1.45;0.80;;;;;;;;;;5009895;28;20171;-60
2021/08/26 18:13:36;;;;;;;0.40;0.40;;;;;;;;;;5010267;28;20170;-61
2021/08/26 18:16:03;;;;;;;1.52;0.60;;;;;;;;;;5009622;28;20586;-61
2021/08/26 18:18:29;;;;;;;1.17;0.60;;;;;;;;;;5012600;28;20528;-61
2021/08/26 18:20:55;;;;;;;0.85;0.57;;;;;;;;;;5013367;28;20198;-61
2021/08/26 18:23:21;;;;;;;1.67;0.52;;;;;;;;;;5013223;28;20190;-61
2021/08/26 18:25:47;;;;;;;0.90;0.80;;;;;;;;;;5013199;28;20178;-61
2021/08/26 18:28:13;;;;;;;1.45;0.60;;;;;;;;;;5013563;28;20174;-60
2021/08/26 18:30:39;;;;;;;0.60;0.60;;;;;;;;;;5013323;28;20173;-60
2021/08/26 18:33:05;;;;;;;1.20;0.70;;;;;;;;;;5013523;28;20173;-60
2021/08/26 18:35:31;;;;;;;0.98;0.60;;;;;;;;;;5013300;28;20162;-61
2021/08/26 18:37:57;;;;;;;1.10;0.60;;;;;;;;;;5013551;28;20177;-60
2021/08/26 18:40:23;;;;;;;0.90;0.70;;;;;;;;;;5013430;28;20173;-60
2021/08/26 18:42:48;;;;;;;0.82;0.60;;;;;;;;;;5013259;28;20162;-60
2021/08/26 18:45:15;;;;;;;1.25;0.80;;;;;;;;;;5013095;28;20553;-60
2021/08/26 18:47:40;;;;;;;1.45;0.90;;;;;;;;;;5013119;28;20253;-60
2021/08/26 18:50:07;;;;;;;1.88;0.80;;;;;;;;;;5012944;28;20249;-61
2021/08/26 18:52:33;;;;;;;2.85;1.10;;;;;;;;;;5013248;28;20155;-60
2021/08/26 18:54:59;;;;;;;2.08;0.85;;;;;;;;;;5011956;28;20802;-60
2021/08/26 18:57:25;;;;;;;1.33;0.80;;;;;;;;;;5012789;28;20194;-61
2021/08/26 18:59:51;;;;;;;0.98;0.80;;;;;;;;;;5012656;28;20219;-60
2021/08/26 19:02:17;;;;;;;1.38;1.00;;;;;;;;;;5012768;28;20178;-60
2021/08/26 19:04:43;;;;;;;1.10;0.90;;;;;;;;;;5012687;28;20173;-60
2021/08/26 19:07:09;;;;;;;2.67;1.20;;;;;;;;;;5012708;28;20181;-61
2021/08/26 19:09:35;;;;;;;2.30;1.10;;;;;;;;;;5012631;28;20166;-61
2021/08/26 19:12:01;;;;;;;1.95;0.90;;;;;;;;;;5012596;28;20222;-60
2021/08/26 19:14:27;;;;;;;1.92;0.98;;;;;;;;;;5012489;28;20170;-61
2021/08/26 19:16:53;;;;;;;0.75;0.65;;;;;;;;;;5012334;28;20289;-61
2021/08/26 19:19:19;;;;;;;1.75;0.85;;;;;;;;;;5012517;28;20191;-60
2021/08/26 19:21:45;;;;;;;1.55;0.90;;;;;;;;;;5012370;28;20193;-60
2021/08/26 19:24:11;;;;;;;1.77;1.02;;;;;;;;;;5012389;28;20167;-60
2021/08/26 19:26:37;;;;;;;1.20;0.93;;;;;;;;;;5012328;28;20181;-60
2021/08/26 19:29:03;;;;;;;0.85;0.80;;;;;;;;;;5011919;28;20174;-60
2021/08/26 19:31:29;;;;;;;2.65;0.75;;;;;;;;;;5012243;28;20621;-60
2021/08/26 19:33:56;;;;;;;1.77;0.90;;;;;;;;;;5012552;28;20170;-60
2021/08/26 19:36:22;;;;;;;0.70;0.70;;;;;;;;;;5012007;28;20691;-60
2021/08/26 19:38:52;;;;;;;1.42;0.85;;;;;;;;;;5012142;28;20260;-60
2021/08/26 19:41:18;;;;;;;1.83;0.95;;;;;;;;;;5011979;28;20511;-60
2021/08/26 19:43:44;;;;;;;0.70;0.70;;;;;;;;;;5012064;28;20163;-59
2021/08/26 19:46:10;;;;;;;2.67;0.90;;;;;;;;;;5012234;28;20189;-59
2021/08/26 19:48:36;;;;;;;0.80;0.70;;;;;;;;;;5011969;28;20359;-59
2021/08/26 19:51:02;;;;;;;1.75;0.63;;;;;;;;;;5011817;28;20177;-59
2021/08/26 19:53:28;;;;;;;1.15;0.90;;;;;;;;;;5011910;28;20174;-59
2021/08/26 19:55:54;;;;;;;1.73;0.70;;;;;;;;;;5011847;28;20198;-59
2021/08/26 19:58:20;;;;;;;0.93;0.73;;;;;;;;;;5011810;28;20166;-59
2021/08/26 20:00:46;;;;;;;1.08;0.90;;;;;;;;;;5011617;28;20532;-59
2021/08/26 20:03:12;;;;;;;1.63;0.88;;;;;;;;;;5011796;28;20212;-59
2021/08/26 20:05:37;;;;;;;1.67;0.80;;;;;;;;;;5010542;28;20235;-59
2021/08/26 20:08:03;;;;;;;1.25;1.08;;;;;;;;;;5011487;28;20170;-60
2021/08/26 20:10:29;;;;;;;3.70;1.15;;;;;;;;;;5011544;28;20475;-59
2021/08/26 20:12:55;;;;;;;1.83;1.35;;;;;;;;;;5011711;28;20167;-58
2021/08/26 20:15:21;;;;;;;2.40;1.52;;;;;;;;;;5011199;28;20178;-59
2021/08/26 20:17:47;;;;;;;0.93;0.80;;;;;;;;;;5011338;28;20167;-59
2021/08/26 20:20:14;;;;;;;1.77;1.00;;;;;;;;;;5011158;28;20190;-59
2021/08/26 20:22:41;;;;;;;1.27;1.00;;;;;;;;;;5011269;28;20166;-59
2021/08/26 20:25:07;;;;;;;1.67;1.08;;;;;;;;;;5011183;28;20630;-58
2021/08/26 20:34:14;;;;;;;2.00;1.00;;;;;;;;;;6324341;22;20510;31
2021/08/26 20:40:46;;;;;;;2.20;0.90;;;;;;;;;;6261385;22;20597;-60